Time;durP1;ratioP1;P1;durP2;ratioP2;P2;SDS_P1;SDS_P2;PMS_P1;PMS_P2;Temp;Humidity;BMP_temperature;BMP_pressure;BME280_temperature;BME280_humidity;BME280_pressure;Samples;Min_cycle;Max_cycle;Signal;HPM_P1;HPM_P2
2022/08/01 05:22:30;;;;;;;6.60;4.07;;;21.60;95.80;;;;;;6267705;22;20027;-92
2022/08/01 05:25:39;;;;;;;;;;;;;;;;;;;;;
2022/08/01 05:28:42;;;;;;;;;;;;;;;;;;;;;
2022/08/01 15:11:42;;;;;;;1.70;1.10;;;23.80;73.60;;;;;;6312041;22;20013;-88
2022/08/01 15:16:55;;;;;;;1.95;0.85;;;23.80;73.10;;;;;;6313010;22;20014;-87
2022/08/01 15:19:27;;;;;;;1.98;0.82;;;23.90;74.50;;;;;;6308199;22;20416;-86
2022/08/01 15:21:53;;;;;;;1.38;0.73;;;23.90;75.90;;;;;;6308506;22;20421;-86
2022/08/01 15:24:19;;;;;;;1.83;0.80;;;24.00;77.20;;;;;;6307636;22;20010;-85
2022/08/01 15:26:44;;;;;;;3.28;1.10;;;24.10;75.90;;;;;;6308530;22;20055;-88
2022/08/01 15:29:16;;;;;;;1.95;0.90;;;24.10;74.60;;;;;;6307405;22;20015;-88
2022/08/01 15:31:42;;;;;;;1.40;0.80;;;24.10;74.30;;;;;;6305794;22;20527;-86
2022/08/01 15:34:08;;;;;;;2.13;1.00;;;24.20;75.70;;;;;;6281876;22;20027;-86
2022/08/01 15:36:42;;;;;;;2.58;1.15;;;24.20;76.50;;;;;;6304143;22;20023;-88
2022/08/01 15:39:09;;;;;;;2.35;1.00;;;24.40;76.00;;;;;;6283953;22;20072;-88
2022/08/01 15:41:38;;;;;;;3.45;1.05;;;24.40;73.90;;;;;;6305689;22;20004;-88
2022/08/01 15:44:07;;;;;;;2.35;1.05;;;24.40;73.00;;;;;;6308577;22;20097;-85
2022/08/01 15:46:32;;;;;;;2.63;1.08;;;24.40;73.30;;;;;;6307274;22;20459;-90
2022/08/01 15:49:04;;;;;;;1.05;0.85;;;24.30;72.80;;;;;;6306961;22;20007;-89
2022/08/01 15:51:33;;;;;;;2.53;0.90;;;24.30;72.10;;;;;;6306964;22;20030;-88
2022/08/01 15:54:02;;;;;;;1.33;0.90;;;24.30;71.70;;;;;;6306680;22;20003;-86
2022/08/01 15:56:29;;;;;;;2.50;1.10;;;24.40;72.20;;;;;;6309858;22;20000;-87
2022/08/01 15:58:55;;;;;;;2.63;0.68;;;24.30;72.10;;;;;;6306098;22;20011;-85
2022/08/01 16:01:21;;;;;;;2.65;0.93;;;24.30;73.40;;;;;;6305211;22;20085;-89
2022/08/01 16:03:47;;;;;;;1.67;0.95;;;24.30;73.60;;;;;;6281581;22;20031;-87
2022/08/01 16:06:14;;;;;;;1.67;0.80;;;24.30;70.90;;;;;;6310416;22;19999;-87
2022/08/01 16:08:40;;;;;;;2.00;1.02;;;24.30;70.90;;;;;;6310495;22;20007;-86
2022/08/01 16:11:06;;;;;;;1.77;0.80;;;24.30;71.00;;;;;;6309915;22;20036;-86
2022/08/01 16:13:32;;;;;;;5.47;1.10;;;24.40;69.40;;;;;;6306766;22;20052;-92
2022/08/01 16:15:58;;;;;;;4.47;1.13;;;24.40;68.10;;;;;;6307575;22;19995;-86
2022/08/01 16:18:28;;;;;;;1.80;1.10;;;24.30;67.30;;;;;;6308987;22;20297;-85
2022/08/01 16:20:58;;;;;;;2.78;0.93;;;24.20;67.80;;;;;;6305854;22;20003;-86
2022/08/01 16:23:25;;;;;;;2.22;0.80;;;24.30;67.20;;;;;;6307393;22;20053;-87
2022/08/01 16:25:53;;;;;;;1.60;0.90;;;24.20;66.70;;;;;;6306605;22;20333;-86
2022/08/01 16:28:20;;;;;;;2.70;0.88;;;24.20;67.40;;;;;;6307599;22;20433;-86
2022/08/01 16:30:46;;;;;;;1.83;0.82;;;24.30;67.70;;;;;;6306203;22;20010;-86
2022/08/01 16:33:15;;;;;;;2.38;1.10;;;24.30;67.10;;;;;;6306739;22;20003;-87
2022/08/01 16:35:43;;;;;;;2.08;0.75;;;24.30;66.00;;;;;;6306048;22;20375;-85
2022/08/01 16:38:10;;;;;;;3.25;0.80;;;24.30;66.10;;;;;;6305181;22;20417;-86
2022/08/01 16:40:36;;;;;;;3.22;1.02;;;24.30;66.20;;;;;;6308767;22;20049;-87
2022/08/01 16:43:03;;;;;;;1.65;0.75;;;24.20;66.10;;;;;;6306985;22;20090;-88
2022/08/01 16:45:42;;;;;;;;;;;;;;;;;;;;;
2022/08/01 16:48:09;;;;;;;4.47;0.80;;;24.20;66.60;;;;;;6307611;22;20378;-86
2022/08/01 16:50:35;;;;;;;2.97;1.27;;;24.20;64.80;;;;;;6307340;22;20007;-85
2022/08/01 16:53:09;;;;;;;2.38;1.05;;;24.20;63.60;;;;;;6281540;22;20054;-86
2022/08/01 16:55:37;;;;;;;3.20;0.90;;;24.10;63.10;;;;;;6308144;22;20007;-88
2022/08/01 16:58:04;;;;;;;2.33;0.80;;;24.10;62.00;;;;;;6306688;22;20085;-87
2022/08/01 17:00:32;;;;;;;2.15;0.95;;;24.10;61.60;;;;;;6281920;22;20011;-86
2022/08/01 17:03:00;;;;;;;3.15;1.15;;;24.10;61.80;;;;;;6309266;22;20034;-85
2022/08/01 17:05:34;;;;;;;1.75;0.70;;;24.10;61.00;;;;;;6307728;22;20079;-85
2022/08/01 17:08:00;;;;;;;2.00;0.90;;;24.00;60.10;;;;;;6309800;22;20011;-87
2022/08/01 17:10:27;;;;;;;2.13;0.85;;;23.90;60.10;;;;;;6291494;22;20011;-86
2022/08/01 17:12:55;;;;;;;2.60;0.82;;;23.90;60.20;;;;;;6332470;22;20056;-87
2022/08/01 17:15:24;;;;;;;2.63;0.70;;;23.80;60.60;;;;;;6332409;22;20011;-88
2022/08/01 17:17:53;;;;;;;1.80;0.60;;;23.80;60.70;;;;;;6281945;22;20087;-86
2022/08/01 17:20:31;;;;;;;2.17;0.98;;;23.70;60.60;;;;;;6330416;22;20003;-88
2022/08/01 17:22:57;;;;;;;3.55;0.73;;;23.70;61.00;;;;;;6327652;22;20378;-86
2022/08/01 17:25:34;;;;;;;1.58;0.77;;;23.70;60.20;;;;;;6307952;22;20030;-86
2022/08/01 17:28:00;;;;;;;4.03;1.10;;;23.70;60.60;;;;;;6284385;22;20011;-86
2022/08/01 17:30:30;;;;;;;4.18;1.05;;;23.60;61.20;;;;;;6307617;22;20009;-84
2022/08/01 17:33:01;;;;;;;1.73;0.60;;;23.60;60.80;;;;;;6308578;22;20002;-86
2022/08/01 17:35:31;;;;;;;2.42;0.75;;;23.50;59.80;;;;;;6307355;22;20003;-87
2022/08/01 17:38:20;;;;;;;2.30;0.82;;;23.50;61.10;;;;;;6280727;22;20003;-87
2022/08/01 17:40:50;;;;;;;1.42;0.60;;;23.40;60.50;;;;;;6306069;22;20441;-90
2022/08/01 17:43:16;;;;;;;1.40;0.50;;;23.40;60.60;;;;;;6282274;22;20046;-85
2022/08/01 17:45:42;;;;;;;1.20;0.70;;;23.30;60.70;;;;;;6306569;22;20000;-85
2022/08/01 17:48:15;;;;;;;1.45;0.65;;;23.30;60.80;;;;;;6305766;22;20003;-86
2022/08/01 17:50:46;;;;;;;2.35;0.88;;;23.30;60.30;;;;;;6280655;22;20436;-87
2022/08/01 17:53:13;;;;;;;1.50;0.50;;;23.30;59.40;;;;;;6306547;22;20421;-85
2022/08/01 17:55:40;;;;;;;2.03;0.85;;;23.20;59.50;;;;;;6306644;22;20314;-85
2022/08/01 17:58:11;;;;;;;2.60;1.17;;;23.20;58.20;;;;;;6308876;22;20000;-86
2022/08/01 18:00:40;;;;;;;2.72;0.80;;;23.20;58.20;;;;;;6306637;22;20003;-86
2022/08/01 18:03:07;;;;;;;1.05;0.50;;;23.10;59.00;;;;;;6306488;22;20011;-86
2022/08/01 18:05:35;;;;;;;0.77;0.50;;;23.10;59.50;;;;;;6307361;22;20428;-87
2022/08/01 18:08:01;;;;;;;1.10;0.80;;;23.20;59.80;;;;;;6305080;22;20006;-86
2022/08/01 18:10:32;;;;;;;2.22;1.00;;;23.20;60.00;;;;;;6305261;22;20007;-86
2022/08/01 18:12:58;;;;;;;1.83;0.77;;;23.20;59.60;;;;;;6280717;22;20468;-86
2022/08/01 18:15:30;;;;;;;2.15;0.73;;;23.10;58.90;;;;;;6305506;22;19995;-87
2022/08/01 18:17:56;;;;;;;3.03;1.05;;;23.10;59.10;;;;;;6280528;22;20031;-87
2022/08/01 18:20:32;;;;;;;2.42;0.68;;;23.00;58.70;;;;;;6307658;22;19999;-87
2022/08/01 18:22:57;;;;;;;4.15;0.80;;;23.00;58.90;;;;;;6308068;22;20086;-87
2022/08/01 18:25:25;;;;;;;2.97;1.10;;;22.90;58.30;;;;;;6308134;22;20081;-86
2022/08/01 18:27:56;;;;;;;2.00;1.00;;;22.80;57.90;;;;;;6309893;22;19999;-89
2022/08/01 18:30:22;;;;;;;2.55;0.90;;;22.80;58.10;;;;;;6282876;22;20053;-85
2022/08/01 18:32:48;;;;;;;2.65;1.00;;;22.70;58.30;;;;;;6307524;22;19995;-85
2022/08/01 18:35:13;;;;;;;1.98;0.70;;;22.70;58.70;;;;;;6306688;22;20003;-86
2022/08/01 18:37:39;;;;;;;2.90;0.98;;;22.70;58.90;;;;;;6308484;22;20027;-85
2022/08/01 18:40:09;;;;;;;2.00;0.85;;;22.70;58.70;;;;;;6307404;22;19999;-87
2022/08/01 18:42:44;;;;;;;1.73;0.60;;;22.60;58.50;;;;;;6306330;22;20015;-85
2022/08/01 18:45:11;;;;;;;2.13;0.70;;;22.60;58.40;;;;;;6282342;22;20003;-85
2022/08/01 18:47:42;;;;;;;1.38;0.60;;;22.60;58.50;;;;;;6307743;22;20007;-86
2022/08/01 18:50:10;;;;;;;3.15;0.95;;;22.60;58.50;;;;;;6283093;22;20064;-87
2022/08/01 18:52:36;;;;;;;1.33;0.50;;;22.60;58.60;;;;;;6307330;22;20003;-86
2022/08/01 18:55:14;;;;;;;2.20;0.70;;;22.60;57.70;;;;;;6308449;22;19999;-87
2022/08/01 18:57:51;;;;;;;1.50;0.68;;;22.60;57.70;;;;;;6284324;22;20015;-87
2022/08/01 19:00:19;;;;;;;2.08;0.68;;;22.50;57.40;;;;;;6308308;22;20072;-86
2022/08/01 19:15:00;;;;;;;;;;;;;;;;;;;;;
2022/08/01 19:17:35;;;;;;;1.08;0.60;;;22.20;57.40;;;;;;6312335;22;20006;-92
